Time;durP1;ratioP1;P1;durP2;ratioP2;P2;SDS_P1;SDS_P2;PMS_P1;PMS_P2;Temp;Humidity;BMP_temperature;BMP_pressure;BME280_temperature;BME280_humidity;BME280_pressure;Samples;Min_cycle;Max_cycle;Signal;HPM_P1;HPM_P2
2023/01/28 00:02:08;;;;;;;12.57;11.13;;;28.30;99.90;;;;;;5073309;28;20196;-80
2023/01/28 00:04:39;;;;;;;14.43;11.45;;;28.40;99.90;;;;;;5070811;28;20246;-81
2023/01/28 00:07:10;;;;;;;12.27;10.98;;;28.50;99.90;;;;;;5072571;28;20196;-81
2023/01/28 00:09:40;;;;;;;13.07;11.00;;;28.60;99.90;;;;;;5072401;28;20279;-80
2023/01/28 00:12:14;;;;;;;13.15;10.88;;;28.50;99.90;;;;;;5073339;28;20651;-82
2023/01/28 00:14:47;;;;;;;13.30;11.27;;;28.60;99.90;;;;;;5072320;28;20200;-81
2023/01/28 00:17:20;;;;;;;13.63;11.13;;;28.60;99.90;;;;;;5070656;28;20192;-81
2023/01/28 00:19:51;;;;;;;11.32;10.18;;;28.70;99.90;;;;;;5071835;28;20226;-81
2023/01/28 00:22:22;;;;;;;12.27;10.48;;;28.70;99.90;;;;;;5072588;28;20199;-81
2023/01/28 00:24:53;;;;;;;13.82;10.95;;;28.70;99.90;;;;;;5071630;28;20302;-81
2023/01/28 00:27:24;;;;;;;15.25;11.50;;;28.80;99.90;;;;;;5082503;28;20198;-82
2023/01/28 00:29:58;;;;;;;15.32;11.60;;;28.90;99.90;;;;;;5073470;28;20715;-82
2023/01/28 00:32:29;;;;;;;15.70;11.75;;;29.00;99.90;;;;;;5074093;28;20206;-81
2023/01/28 00:35:00;;;;;;;13.02;11.48;;;29.10;99.90;;;;;;5073413;28;20274;-82
2023/01/28 00:37:31;;;;;;;13.10;11.02;;;29.10;99.90;;;;;;5070980;28;20192;-82
2023/01/28 00:40:02;;;;;;;15.07;10.95;;;29.20;99.90;;;;;;5069191;28;20271;-81
2023/01/28 00:42:33;;;;;;;16.27;11.32;;;29.30;99.90;;;;;;5053672;28;20300;-82
2023/01/28 00:45:07;;;;;;;13.32;11.35;;;29.40;99.90;;;;;;5080537;28;20717;-81
2023/01/28 00:47:39;;;;;;;15.02;11.80;;;29.40;99.90;;;;;;5059613;28;20573;-81
2023/01/28 00:50:10;;;;;;;16.65;12.20;;;29.50;99.90;;;;;;5071686;28;20622;-81
2023/01/28 00:52:42;;;;;;;15.48;12.40;;;29.60;99.90;;;;;;5073649;28;20196;-82
2023/01/28 00:55:13;;;;;;;13.05;11.48;;;29.70;99.90;;;;;;5072851;28;20203;-82
2023/01/28 00:57:44;;;;;;;15.50;11.88;;;29.60;99.90;;;;;;5068957;28;20227;-81
2023/01/28 01:00:19;;;;;;;15.23;11.48;;;29.70;99.90;;;;;;5073687;28;20275;-80
2023/01/28 01:02:50;;;;;;;14.48;11.45;;;29.70;99.90;;;;;;5072557;28;20200;-81
2023/01/28 01:05:21;;;;;;;15.52;11.23;;;29.70;99.90;;;;;;5063819;28;20269;-81
2023/01/28 01:07:52;;;;;;;17.30;11.93;;;29.70;99.90;;;;;;5072724;28;20199;-82
2023/01/28 01:10:23;;;;;;;14.88;10.65;;;29.70;99.90;;;;;;5071258;28;20200;-81
2023/01/28 01:12:56;;;;;;;13.23;11.00;;;29.80;99.90;;;;;;5071262;28;20196;-82
2023/01/28 01:15:30;;;;;;;14.23;11.80;;;29.90;99.90;;;;;;5067750;28;20199;-82
2023/01/28 01:18:02;;;;;;;15.05;11.00;;;29.90;99.90;;;;;;5071184;28;20213;-82
2023/01/28 01:20:38;;;;;;;15.63;11.15;;;30.00;99.90;;;;;;5071129;28;20231;-82
2023/01/28 01:23:09;;;;;;;13.23;10.38;;;30.00;99.90;;;;;;5072999;28;20278;-81
2023/01/28 01:25:43;;;;;;;12.30;10.00;;;30.00;99.90;;;;;;5079145;28;20333;-81
2023/01/28 01:28:14;;;;;;;15.82;9.82;;;30.00;99.90;;;;;;5078754;28;20282;-82
2023/01/28 01:30:47;;;;;;;13.05;9.48;;;29.90;99.90;;;;;;5071144;28;20606;-82
2023/01/28 01:33:19;;;;;;;13.88;9.63;;;30.00;99.90;;;;;;5058946;28;20196;-82
2023/01/28 01:35:56;;;;;;;12.23;9.38;;;29.90;99.90;;;;;;5071726;28;20199;-82
2023/01/28 01:38:28;;;;;;;14.30;9.50;;;29.80;99.90;;;;;;5070264;28;20199;-81
2023/01/28 01:41:00;;;;;;;14.75;9.23;;;29.80;99.90;;;;;;5069995;28;20279;-81
2023/01/28 01:43:49;;;;;;;11.45;8.60;;;29.70;99.90;;;;;;5070545;28;20220;-81
2023/01/28 01:46:25;;;;;;;11.07;8.02;;;29.70;99.90;;;;;;5067985;28;20234;-81
2023/01/28 01:48:59;;;;;;;14.82;8.07;;;29.80;99.90;;;;;;5069879;28;20287;-82
2023/01/28 01:51:34;;;;;;;11.98;8.30;;;29.80;99.90;;;;;;5071107;28;20206;-81
2023/01/28 01:54:06;;;;;;;16.02;8.27;;;29.90;99.90;;;;;;5072148;28;20201;-81
2023/01/28 01:56:40;;;;;;;13.23;8.07;;;29.90;99.90;;;;;;5070438;28;20210;-81
2023/01/28 01:59:14;;;;;;;10.85;7.90;;;29.90;99.90;;;;;;5071986;28;20200;-81
2023/01/28 02:01:48;;;;;;;8.77;6.72;;;29.90;99.90;;;;;;5071750;28;20204;-81
2023/01/28 02:04:25;;;;;;;11.00;6.32;;;29.90;99.90;;;;;;5065728;28;20203;-81
2023/01/28 02:06:56;;;;;;;8.60;6.13;;;30.00;99.90;;;;;;5069436;28;20210;-81
2023/01/28 02:09:30;;;;;;;8.30;5.68;;;30.00;99.90;;;;;;5072230;28;20206;-81
2023/01/28 02:12:06;;;;;;;9.73;5.03;;;30.00;99.90;;;;;;5070656;28;20192;-80
2023/01/28 02:14:40;;;;;;;7.90;4.65;;;29.90;99.90;;;;;;5069257;28;20196;-81
2023/01/28 02:17:13;;;;;;;7.68;4.20;;;29.80;99.90;;;;;;5066610;28;20729;-81
2023/01/28 02:19:50;;;;;;;9.82;4.10;;;29.80;99.90;;;;;;5058716;28;20746;-81
2023/01/28 02:22:48;;;;;;;7.57;4.00;;;29.80;99.90;;;;;;5054989;28;20571;-81
2023/01/28 02:25:47;;;;;;;8.50;3.53;;;29.70;99.90;;;;;;5068333;28;20228;-81
2023/01/28 02:28:29;;;;;;;8.48;3.55;;;29.60;99.90;;;;;;5081913;28;20204;-80
2023/01/28 02:31:06;;;;;;;7.45;3.30;;;29.50;99.90;;;;;;5071582;28;20196;-80
2023/01/28 02:33:42;;;;;;;7.07;2.78;;;29.50;99.90;;;;;;5073382;28;20207;-81
2023/01/28 02:36:25;;;;;;;8.70;2.90;;;29.40;99.90;;;;;;5070671;28;20559;-81
2023/01/28 02:39:00;;;;;;;6.20;2.58;;;29.50;99.90;;;;;;5070855;28;20658;-81
2023/01/28 02:41:34;;;;;;;9.18;2.38;;;29.60;99.90;;;;;;5062576;28;20203;-81
2023/01/28 02:44:08;;;;;;;8.95;2.42;;;29.60;99.90;;;;;;5068856;28;20602;-81
2023/01/28 02:49:30;;;;;;;6.93;1.75;;;29.60;99.90;;;;;;5051424;28;20578;-81
2023/01/28 02:52:19;;;;;;;8.95;1.90;;;29.60;99.90;;;;;;5067183;28;20636;-82
2023/01/28 02:55:01;;;;;;;8.38;1.92;;;29.70;99.90;;;;;;5070771;28;20227;-81
2023/01/28 02:57:39;;;;;;;6.30;1.88;;;29.80;99.90;;;;;;5069583;28;20196;-80
2023/01/28 03:00:20;;;;;;;11.00;1.85;;;29.80;99.90;;;;;;5069581;28;20659;-80
2023/01/28 03:03:00;;;;;;;6.20;1.60;;;29.80;99.90;;;;;;5061666;28;20593;-83
2023/01/28 03:05:37;;;;;;;5.90;1.80;;;29.80;99.90;;;;;;5073467;28;20698;-83
2023/01/28 03:39:12;;;;;;;9.85;2.25;;;30.10;99.90;;;;;;5055322;28;20211;-82
2023/01/28 03:41:43;;;;;;;7.55;2.00;;;30.10;99.90;;;;;;5065861;28;20192;-83
2023/01/28 03:47:01;;;;;;;7.60;1.75;;;30.00;99.90;;;;;;5075962;28;20574;-82
2023/01/28 03:49:34;;;;;;;8.48;2.05;;;30.00;99.90;;;;;;5061253;28;20200;-83
2023/01/28 03:52:05;;;;;;;6.40;2.03;;;30.00;99.90;;;;;;5068909;28;20725;-83
2023/01/28 03:54:36;;;;;;;10.57;2.20;;;30.00;99.90;;;;;;5054655;28;20219;-81
2023/01/28 03:57:07;;;;;;;10.73;2.58;;;30.00;99.90;;;;;;5070252;28;20200;-82
2023/01/28 03:59:37;;;;;;;8.00;2.28;;;30.10;99.90;;;;;;5073244;28;20750;-82
2023/01/28 04:02:12;;;;;;;9.55;2.53;;;30.10;99.90;;;;;;5073011;28;20199;-82
2023/01/28 04:04:45;;;;;;;7.75;2.05;;;30.10;99.90;;;;;;5073146;28;20200;-81
2023/01/28 04:07:16;;;;;;;7.68;2.20;;;30.10;99.90;;;;;;5071830;28;20199;-82
2023/01/28 04:09:47;;;;;;;7.93;2.30;;;30.10;99.90;;;;;;5064481;28;20200;-82
2023/01/28 04:12:18;;;;;;;9.93;2.45;;;30.30;99.90;;;;;;5072943;28;20689;-82
2023/01/28 04:14:49;;;;;;;8.07;2.70;;;30.40;99.90;;;;;;5072482;28;20282;-82
2023/01/28 04:17:20;;;;;;;9.23;2.47;;;30.40;99.90;;;;;;5073956;28;20562;-82
2023/01/28 04:19:53;;;;;;;5.22;1.88;;;30.50;99.90;;;;;;5073447;28;20231;-82
2023/01/28 04:22:23;;;;;;;6.50;1.70;;;30.50;99.90;;;;;;5061702;28;20569;-82
2023/01/28 04:24:54;;;;;;;7.32;1.70;;;30.60;99.90;;;;;;5069117;28;20275;-82
2023/01/28 04:27:25;;;;;;;7.95;2.20;;;30.70;99.90;;;;;;5085122;28;20247;-81
2023/01/28 04:29:56;;;;;;;7.05;1.80;;;30.70;99.90;;;;;;5063961;28;20265;-82
2023/01/28 04:32:28;;;;;;;11.75;1.90;;;30.70;99.90;;;;;;5080330;28;20267;-82
2023/01/28 04:35:01;;;;;;;8.43;2.08;;;30.70;99.90;;;;;;5088804;28;20649;-80
2023/01/28 04:37:32;;;;;;;8.98;2.00;;;30.80;99.90;;;;;;5087320;28;20605;-81
2023/01/28 04:40:03;;;;;;;7.18;1.58;;;30.80;99.90;;;;;;5074389;28;20207;-81
2023/01/28 04:42:34;;;;;;;5.43;1.60;;;30.80;99.90;;;;;;5086667;28;20758;-82
2023/01/28 04:45:07;;;;;;;7.45;1.90;;;30.80;99.90;;;;;;5075254;28;20307;-84
2023/01/28 04:47:38;;;;;;;10.50;1.80;;;30.90;99.90;;;;;;5072438;28;20204;-84
2023/01/28 04:50:12;;;;;;;8.57;1.77;;;30.90;99.90;;;;;;5058757;28;20224;-83
2023/01/28 04:52:43;;;;;;;5.63;1.73;;;30.90;99.90;;;;;;5070338;28;20710;-83
2023/01/28 04:55:14;;;;;;;5.13;1.67;;;30.90;99.90;;;;;;5073020;28;20262;-83
2023/01/28 04:57:46;;;;;;;9.15;1.70;;;30.90;99.90;;;;;;5061963;28;20298;-82
2023/01/28 05:00:17;;;;;;;6.93;1.63;;;30.90;99.90;;;;;;5071107;28;20279;-82
2023/01/28 05:02:48;;;;;;;7.13;1.67;;;30.90;99.90;;;;;;5067260;28;20193;-83
2023/01/28 05:05:22;;;;;;;4.93;1.73;;;31.00;99.90;;;;;;5055190;28;20854;-82
2023/01/28 05:07:57;;;;;;;9.35;1.55;;;31.10;99.90;;;;;;5070735;28;20192;-83
2023/01/28 05:10:29;;;;;;;7.07;1.45;;;31.10;99.90;;;;;;5065122;28;20192;-82
2023/01/28 05:12:59;;;;;;;10.13;1.80;;;31.10;99.90;;;;;;5058360;28;20207;-82
2023/01/28 05:15:30;;;;;;;8.30;1.90;;;31.20;99.90;;;;;;5057695;28;20286;-83
2023/01/28 05:18:01;;;;;;;6.30;1.45;;;31.20;99.90;;;;;;5070720;28;20541;-82
2023/01/28 05:20:34;;;;;;;10.15;1.75;;;31.30;99.90;;;;;;5070656;28;20346;-83
2023/01/28 05:23:05;;;;;;;5.03;1.35;;;31.50;99.90;;;;;;5063252;28;20275;-83
2023/01/28 05:25:36;;;;;;;5.60;1.85;;;31.60;99.90;;;;;;5076111;28;20211;-84
2023/01/28 05:28:07;;;;;;;7.45;1.80;;;31.70;99.90;;;;;;5090062;28;20247;-83
2023/01/28 05:30:39;;;;;;;6.43;1.52;;;31.70;99.90;;;;;;5071514;28;20208;-83
2023/01/28 05:33:10;;;;;;;8.85;1.88;;;31.80;99.90;;;;;;5065315;28;20204;-82
2023/01/28 05:35:44;;;;;;;7.22;2.00;;;31.80;99.90;;;;;;5058662;28;20192;-84
2023/01/28 05:38:19;;;;;;;7.10;1.90;;;31.90;99.90;;;;;;5062046;28;20220;-82
2023/01/28 05:40:51;;;;;;;8.35;1.90;;;31.90;99.90;;;;;;5074741;28;20200;-83
2023/01/28 05:43:22;;;;;;;7.32;1.90;;;32.00;99.90;;;;;;5062716;28;20246;-81
2023/01/28 05:45:54;;;;;;;6.20;1.75;;;31.80;99.90;;;;;;5062711;28;20218;-83
2023/01/28 05:48:25;;;;;;;9.02;1.83;;;31.80;99.90;;;;;;5062326;28;20199;-82
2023/01/28 05:50:58;;;;;;;7.70;1.67;;;32.00;99.90;;;;;;5064291;28;20200;-82
2023/01/28 05:53:29;;;;;;;6.38;1.88;;;32.10;99.90;;;;;;5071350;28;20200;-82
2023/01/28 05:56:02;;;;;;;6.25;1.80;;;32.20;99.90;;;;;;5071241;28;20204;-84
2023/01/28 05:58:33;;;;;;;6.78;1.70;;;32.40;99.90;;;;;;5072733;28;20249;-82
2023/01/28 06:01:04;;;;;;;9.32;2.20;;;32.50;99.90;;;;;;5070191;28;20283;-82
2023/01/28 06:03:35;;;;;;;8.38;2.17;;;32.60;99.90;;;;;;5071237;28;20220;-82
2023/01/28 06:06:08;;;;;;;7.93;2.05;;;32.50;99.90;;;;;;5068800;28;20217;-82
2023/01/28 06:08:39;;;;;;;10.30;2.15;;;32.70;99.90;;;;;;5072847;28;20200;-82
2023/01/28 06:11:10;;;;;;;6.65;1.88;;;32.90;99.90;;;;;;5070974;28;20196;-82
2023/01/28 06:13:41;;;;;;;8.02;2.10;;;32.90;99.90;;;;;;5072397;28;20203;-82
2023/01/28 06:16:12;;;;;;;7.70;2.10;;;33.10;99.90;;;;;;5071191;28;20279;-82
2023/01/28 06:18:43;;;;;;;8.63;2.15;;;33.20;99.90;;;;;;5066817;28;20198;-82
2023/01/28 06:21:16;;;;;;;10.50;2.22;;;33.10;99.90;;;;;;5067590;28;20286;-81
2023/01/28 06:23:47;;;;;;;9.30;2.45;;;33.20;99.90;;;;;;5055792;28;20664;-81
2023/01/28 06:26:20;;;;;;;7.80;2.00;;;33.40;99.90;;;;;;5072730;28;20314;-81
2023/01/28 06:28:51;;;;;;;10.60;2.25;;;33.60;99.90;;;;;;5087332;28;20224;-81
2023/01/28 06:31:22;;;;;;;7.10;2.13;;;33.60;99.90;;;;;;5074916;28;20211;-82
2023/01/28 06:33:53;;;;;;;6.63;2.17;;;33.90;99.90;;;;;;5073557;28;20223;-80
2023/01/28 06:36:27;;;;;;;8.45;2.00;;;34.00;99.90;;;;;;5074508;28;20192;-80
2023/01/28 06:38:58;;;;;;;11.98;2.22;;;34.10;99.90;;;;;;5072328;28;20204;-80
2023/01/28 06:41:29;;;;;;;10.25;2.47;;;34.10;99.90;;;;;;5065206;28;20286;-81
2023/01/28 06:43:59;;;;;;;11.95;3.17;;;34.30;99.90;;;;;;5070829;28;20221;-81
2023/01/28 06:46:31;;;;;;;11.80;2.40;;;34.30;99.90;;;;;;5071264;28;20219;-81
2023/01/28 06:49:01;;;;;;;9.82;2.20;;;34.30;99.90;;;;;;5077616;28;20200;-81
2023/01/28 06:51:36;;;;;;;12.65;2.83;;;34.20;99.90;;;;;;5065988;28;20283;-81
2023/01/28 06:54:13;;;;;;;9.32;2.58;;;34.30;99.90;;;;;;5074465;28;20631;-81
2023/01/28 06:56:44;;;;;;;12.20;2.33;;;34.50;99.90;;;;;;5069835;28;20249;-81
2023/01/28 06:59:15;;;;;;;9.02;2.25;;;34.80;99.90;;;;;;5071640;28;20286;-81
2023/01/28 07:01:46;;;;;;;10.52;2.20;;;34.80;99.90;;;;;;5071951;28;20196;-82
2023/01/28 07:04:17;;;;;;;7.32;2.15;;;35.00;99.90;;;;;;5071229;28;20674;-82
2023/01/28 07:06:51;;;;;;;11.45;2.85;;;34.90;99.90;;;;;;5070937;28;20312;-81
2023/01/28 07:09:22;;;;;;;7.55;2.00;;;35.10;99.90;;;;;;5064104;28;20650;-80
2023/01/28 07:11:53;;;;;;;10.27;2.30;;;35.30;99.90;;;;;;5065366;28;20304;-80
2023/01/28 07:14:24;;;;;;;11.75;2.75;;;35.20;99.90;;;;;;5071071;28;20196;-82
2023/01/28 07:16:56;;;;;;;9.88;2.50;;;35.20;99.90;;;;;;5067384;28;20201;-81
2023/01/28 07:19:27;;;;;;;9.02;2.60;;;35.20;99.90;;;;;;5074126;28;20223;-81
2023/01/28 07:22:01;;;;;;;8.52;2.60;;;35.20;99.90;;;;;;5063341;28;20287;-82
2023/01/28 07:24:34;;;;;;;9.35;2.45;;;34.90;99.90;;;;;;5059019;28;20196;-80
2023/01/28 07:27:05;;;;;;;10.82;2.45;;;34.70;99.90;;;;;;5077351;28;20400;-81
2023/01/28 07:29:36;;;;;;;6.70;2.03;;;34.30;99.90;;;;;;5071813;28;20225;-80
2023/01/28 07:32:08;;;;;;;12.27;2.58;;;33.80;99.90;;;;;;5069790;28;20259;-82
2023/01/28 07:34:41;;;;;;;9.68;2.70;;;33.30;99.90;;;;;;5069780;28;20188;-81
2023/01/28 07:37:14;;;;;;;7.97;2.30;;;33.00;99.90;;;;;;5071340;28;20196;-82
2023/01/28 07:39:45;;;;;;;11.15;2.28;;;32.50;99.90;;;;;;5070927;28;20199;-82
2023/01/28 07:42:17;;;;;;;9.82;2.58;;;32.20;99.90;;;;;;5070085;28;20193;-81
2023/01/28 07:44:48;;;;;;;11.93;2.72;;;32.00;99.90;;;;;;5071775;28;20701;-82
2023/01/28 07:47:19;;;;;;;12.93;2.92;;;31.80;99.90;;;;;;5069758;28;20334;-81
2023/01/28 07:49:50;;;;;;;12.80;2.67;;;31.50;99.90;;;;;;5077676;28;20199;-82
2023/01/28 07:52:23;;;;;;;12.70;2.72;;;31.40;99.90;;;;;;5074789;28;20206;-80
2023/01/28 07:54:54;;;;;;;9.65;2.60;;;31.40;99.90;;;;;;5073676;28;20200;-82
2023/01/28 07:57:25;;;;;;;11.65;2.75;;;31.30;99.90;;;;;;5074302;28;20199;-82
2023/01/28 07:59:56;;;;;;;11.75;2.75;;;31.10;99.90;;;;;;5074167;28;20647;-81
2023/01/28 08:02:28;;;;;;;9.38;2.70;;;31.00;99.90;;;;;;5068900;28;20571;-81
2023/01/28 08:05:00;;;;;;;11.05;2.67;;;30.80;99.90;;;;;;5071067;28;20212;-82
2023/01/28 08:07:33;;;;;;;13.38;3.00;;;30.60;99.90;;;;;;5072524;28;20722;-82
2023/01/28 08:10:04;;;;;;;13.25;2.70;;;30.50;99.90;;;;;;5074330;28;20683;-82
2023/01/28 08:12:35;;;;;;;11.10;2.70;;;30.30;99.90;;;;;;5073230;28;20203;-82
2023/01/28 08:15:07;;;;;;;8.15;2.33;;;30.20;99.90;;;;;;5072636;28;20206;-83
2023/01/28 08:17:38;;;;;;;13.07;2.60;;;30.00;99.90;;;;;;5066975;28;20283;-83
2023/01/28 08:20:10;;;;;;;9.45;2.42;;;29.90;99.90;;;;;;5063300;28;20315;-82
2023/01/28 08:22:43;;;;;;;7.50;2.53;;;29.80;99.90;;;;;;5065636;28;20214;-81
2023/01/28 08:25:22;;;;;;;10.55;2.90;;;29.70;99.90;;;;;;5066383;28;20330;-81
2023/01/28 08:27:55;;;;;;;12.15;3.35;;;29.70;99.90;;;;;;5071204;28;20220;-82
2023/01/28 08:30:33;;;;;;;10.65;2.85;;;29.60;99.90;;;;;;5084359;28;20234;-82
2023/01/28 08:33:05;;;;;;;11.52;2.95;;;29.60;99.90;;;;;;5074247;28;20718;-82
2023/01/28 08:35:36;;;;;;;10.88;3.00;;;29.40;99.90;;;;;;5068638;28;20232;-81
2023/01/28 08:38:10;;;;;;;10.00;2.80;;;29.40;99.90;;;;;;5072765;28;20204;-81
2023/01/28 08:40:42;;;;;;;11.57;3.42;;;29.20;99.90;;;;;;5073244;28;20287;-82
2023/01/28 08:43:13;;;;;;;13.88;3.55;;;29.20;99.90;;;;;;5072352;28;20188;-82
2023/01/28 08:45:44;;;;;;;16.85;3.30;;;29.00;99.90;;;;;;5070992;28;20275;-82
2023/01/28 08:48:19;;;;;;;13.73;3.13;;;28.90;99.90;;;;;;5060774;28;20229;-81
2023/01/28 08:50:51;;;;;;;16.30;3.28;;;28.80;99.90;;;;;;5063810;28;20539;-82
2023/01/28 08:53:24;;;;;;;12.75;3.28;;;28.70;99.90;;;;;;5066436;28;20207;-82
2023/01/28 08:55:57;;;;;;;14.75;3.30;;;28.70;99.90;;;;;;5067006;28;20283;-81
2023/01/28 08:58:28;;;;;;;14.02;3.40;;;28.50;99.90;;;;;;5065518;28;20209;-81
2023/01/28 09:01:00;;;;;;;9.23;3.10;;;28.50;99.90;;;;;;5070210;28;20199;-81
2023/01/28 09:03:31;;;;;;;10.63;3.22;;;28.40;99.90;;;;;;5056954;28;20197;-81
2023/01/28 09:06:03;;;;;;;9.85;2.80;;;28.40;99.90;;;;;;5057448;28;20188;-82
2023/01/28 09:08:36;;;;;;;13.95;3.45;;;28.40;99.90;;;;;;5073029;28;20204;-81
2023/01/28 09:11:07;;;;;;;13.32;3.17;;;28.30;99.90;;;;;;5071715;28;20566;-82
2023/01/28 09:13:39;;;;;;;14.02;3.38;;;28.30;99.90;;;;;;5072698;28;20204;-80
2023/01/28 09:16:10;;;;;;;13.68;3.35;;;28.20;99.90;;;;;;5078921;28;20221;-80
2023/01/28 09:18:43;;;;;;;17.58;3.45;;;28.20;99.90;;;;;;5075904;28;20235;-82
2023/01/28 09:21:16;;;;;;;14.50;3.03;;;28.20;99.90;;;;;;5071706;28;20196;-82
2023/01/28 09:23:48;;;;;;;14.95;3.45;;;28.10;99.90;;;;;;5071650;28;20203;-82
2023/01/28 09:26:20;;;;;;;12.82;3.00;;;28.00;99.90;;;;;;5074575;28;20188;-81
2023/01/28 09:28:51;;;;;;;14.45;3.25;;;28.00;99.90;;;;;;5074081;28;20307;-81
2023/01/28 09:31:22;;;;;;;14.90;3.55;;;27.90;99.90;;;;;;5062471;28;20200;-81
2023/01/28 09:33:56;;;;;;;15.90;3.05;;;27.90;99.90;;;;;;5068708;28;20192;-81
2023/01/28 09:36:26;;;;;;;11.80;3.03;;;27.90;99.90;;;;;;5072224;28;20282;-81
2023/01/28 09:38:59;;;;;;;20.15;3.83;;;27.90;99.90;;;;;;5072822;28;20204;-81
2023/01/28 09:41:33;;;;;;;13.50;3.33;;;27.80;99.90;;;;;;5072789;28;20678;-81
2023/01/28 09:44:25;;;;;;;11.70;3.08;;;27.80;99.90;;;;;;5071209;28;20235;-82
2023/01/28 09:47:01;;;;;;;13.00;3.13;;;27.70;99.90;;;;;;5075853;28;20223;-81
2023/01/28 09:49:40;;;;;;;12.90;3.17;;;27.80;99.90;;;;;;5067952;28;20204;-81
2023/01/28 09:52:17;;;;;;;14.75;3.05;;;27.80;99.90;;;;;;5065392;28;20202;-81
2023/01/28 09:54:53;;;;;;;12.35;3.38;;;27.70;99.90;;;;;;5075140;28;20302;-81
2023/01/28 09:57:26;;;;;;;16.85;3.67;;;27.70;99.90;;;;;;5077932;28;20195;-81
2023/01/28 10:00:01;;;;;;;17.13;3.75;;;27.70;99.90;;;;;;5073957;28;20200;-81
2023/01/28 10:02:48;;;;;;;14.50;3.08;;;27.70;99.90;;;;;;5086001;28;20195;-81
2023/01/28 10:05:29;;;;;;;16.02;3.25;;;27.70;99.90;;;;;;5090831;28;20587;-81
2023/01/28 10:08:12;;;;;;;10.55;3.00;;;27.70;99.90;;;;;;5081877;28;20259;-81
2023/01/28 10:10:52;;;;;;;14.38;3.13;;;27.70;99.90;;;;;;5086398;28;20224;-82
2023/01/28 10:13:38;;;;;;;12.07;3.03;;;27.60;99.90;;;;;;5082543;28;20227;-80
2023/01/28 10:16:29;;;;;;;14.13;3.22;;;27.60;99.90;;;;;;5063756;28;20651;-82
2023/01/28 10:19:04;;;;;;;14.55;3.35;;;27.60;99.90;;;;;;5075046;28;20227;-80
2023/01/28 10:21:40;;;;;;;14.63;3.45;;;27.60;99.90;;;;;;5072036;28;20265;-81
2023/01/28 10:24:18;;;;;;;14.50;3.28;;;27.50;99.90;;;;;;5076748;28;20253;-81
2023/01/28 10:26:53;;;;;;;14.93;3.20;;;27.60;99.90;;;;;;5079166;28;20192;-81
2023/01/28 10:29:29;;;;;;;18.98;3.78;;;27.50;99.90;;;;;;5085345;28;20298;-82
2023/01/28 10:32:10;;;;;;;14.88;3.50;;;27.50;99.90;;;;;;5074873;28;20192;-82
2023/01/28 10:34:41;;;;;;;19.38;3.85;;;27.50;99.90;;;;;;5071808;28;20195;-82
2023/01/28 10:37:15;;;;;;;18.38;3.58;;;27.50;99.90;;;;;;5059659;28;20595;-80
2023/01/28 10:39:51;;;;;;;15.40;2.95;;;27.40;99.90;;;;;;5058578;28;20189;-82
2023/01/28 10:42:31;;;;;;;18.02;3.25;;;27.40;99.90;;;;;;5072960;28;20207;-82
2023/01/28 10:45:09;;;;;;;12.20;3.42;;;27.40;99.90;;;;;;5069023;28;20278;-81
2023/01/28 10:47:45;;;;;;;14.85;3.35;;;27.40;99.90;;;;;;5074839;28;20223;-82
2023/01/28 10:50:24;;;;;;;13.88;3.50;;;27.40;99.90;;;;;;5064531;28;20231;-82
2023/01/28 10:52:59;;;;;;;15.02;4.30;;;27.40;99.90;;;;;;5067205;28;20192;-81
2023/01/28 10:55:32;;;;;;;18.90;4.75;;;27.40;99.90;;;;;;5053764;28;20200;-82
2023/01/28 10:58:06;;;;;;;13.27;6.53;;;27.30;99.90;;;;;;5066516;28;20206;-81
2023/01/28 11:00:39;;;;;;;20.23;10.65;;;27.30;99.90;;;;;;5073566;28;20294;-82
2023/01/28 11:03:20;;;;;;;14.20;4.18;;;27.30;99.90;;;;;;5060672;28;20200;-81
2023/01/28 11:05:56;;;;;;;15.32;3.67;;;27.40;99.90;;;;;;5074295;28;20291;-81
2023/01/28 11:08:28;;;;;;;14.80;3.42;;;27.30;99.90;;;;;;5074946;28;20760;-80
2023/01/28 11:11:00;;;;;;;11.98;2.80;;;27.20;99.90;;;;;;5077214;28;20263;-82
2023/01/28 11:13:33;;;;;;;14.60;3.20;;;27.20;99.90;;;;;;5072124;28;20558;-81
2023/01/28 11:16:08;;;;;;;17.10;3.55;;;27.20;99.90;;;;;;5071895;28;20230;-81
2023/01/28 11:18:48;;;;;;;11.38;3.03;;;27.20;99.90;;;;;;5069087;28;20275;-81
2023/01/28 11:21:22;;;;;;;14.00;3.30;;;27.20;99.90;;;;;;5073460;28;20196;-81
2023/01/28 11:23:56;;;;;;;13.48;3.25;;;27.20;99.90;;;;;;5072980;28;20254;-81
2023/01/28 11:26:28;;;;;;;15.75;3.47;;;27.20;99.90;;;;;;5082159;28;20196;-80
2023/01/28 11:29:01;;;;;;;15.23;3.67;;;27.30;99.90;;;;;;5069781;28;20232;-81
2023/01/28 11:31:39;;;;;;;17.73;3.83;;;27.20;99.90;;;;;;5077435;28;20268;-80
2023/01/28 11:34:10;;;;;;;12.75;3.40;;;27.30;99.90;;;;;;5082558;28;20682;-80
2023/01/28 11:36:52;;;;;;;12.10;3.25;;;27.20;99.90;;;;;;5075994;28;20589;-82
2023/01/28 11:39:29;;;;;;;20.20;4.32;;;27.20;99.90;;;;;;5075889;28;20192;-83
2023/01/28 11:42:13;;;;;;;15.30;3.58;;;27.10;99.90;;;;;;5077244;28;20562;-82
2023/01/28 11:44:47;;;;;;;16.23;3.63;;;27.00;99.90;;;;;;5065018;28;20263;-83
2023/01/28 11:47:41;;;;;;;17.27;3.55;;;27.10;99.90;;;;;;5076646;28;20224;-83
2023/01/28 11:50:41;;;;;;;12.30;2.95;;;27.10;99.90;;;;;;5075603;28;20279;-83
2023/01/28 11:53:35;;;;;;;16.10;3.30;;;27.10;99.90;;;;;;5060438;28;20276;-83
2023/01/28 11:56:28;;;;;;;14.35;3.10;;;27.10;99.90;;;;;;5072884;28;20200;-83
2023/01/28 11:59:12;;;;;;;16.95;3.78;;;27.20;99.90;;;;;;5072010;28;20206;-81
2023/01/28 12:01:57;;;;;;;17.80;3.45;;;27.10;99.90;;;;;;5078867;28;20259;-83
2023/01/28 12:04:43;;;;;;;13.38;3.00;;;27.10;99.90;;;;;;5084718;28;20286;-83
2023/01/28 12:07:26;;;;;;;13.20;3.25;;;27.10;99.90;;;;;;5078102;28;20204;-84
2023/01/28 12:10:03;;;;;;;13.82;3.08;;;27.10;99.90;;;;;;5083883;28;20192;-81
2023/01/28 12:12:56;;;;;;;14.38;3.28;;;27.10;99.90;;;;;;5082056;28;20199;-82
2023/01/28 12:15:51;;;;;;;15.02;3.33;;;27.00;99.90;;;;;;5064698;28;20659;-83
2023/01/28 12:18:46;;;;;;;14.25;2.97;;;27.10;99.90;;;;;;5076792;28;20206;-84
2023/01/28 12:21:29;;;;;;;15.18;3.85;;;27.00;99.90;;;;;;5073431;28;20209;-82
2023/01/28 12:24:19;;;;;;;14.68;3.53;;;27.00;99.90;;;;;;5073408;28;20733;-82
2023/01/28 12:26:56;;;;;;;12.90;3.40;;;27.00;99.90;;;;;;5089940;28;20335;-79
2023/01/28 12:29:34;;;;;;;17.13;3.95;;;27.00;99.90;;;;;;5087826;28;20269;-83
2023/01/28 12:32:19;;;;;;;15.02;3.60;;;27.00;99.90;;;;;;5063530;28;20582;-81
2023/01/28 12:35:23;;;;;;;17.25;3.53;;;26.90;99.90;;;;;;5074456;28;20210;-82
2023/01/28 12:38:09;;;;;;;15.32;3.95;;;27.00;99.90;;;;;;5073992;28;20230;-82
2023/01/28 12:41:06;;;;;;;16.33;3.10;;;26.90;99.90;;;;;;5079515;28;20557;-82
2023/01/28 12:43:59;;;;;;;15.35;3.17;;;26.90;99.90;;;;;;5081795;28;20622;-82
2023/01/28 12:46:51;;;;;;;12.95;3.13;;;26.90;99.90;;;;;;5062730;28;20201;-83
2023/01/28 12:49:32;;;;;;;16.70;3.00;;;26.90;99.90;;;;;;5072381;28;20717;-83
2023/01/28 12:52:11;;;;;;;15.05;3.38;;;26.80;99.90;;;;;;5077515;28;20657;-84
2023/01/28 12:54:57;;;;;;;15.05;3.30;;;26.80;99.90;;;;;;5076484;28;20202;-81
2023/01/28 12:57:30;;;;;;;14.15;3.05;;;26.80;99.90;;;;;;5072513;28;20214;-84
2023/01/28 13:00:15;;;;;;;11.45;3.42;;;26.80;99.90;;;;;;5076746;28;20206;-84
2023/01/28 13:02:53;;;;;;;12.85;3.08;;;26.80;99.90;;;;;;5077284;28;20206;-85
2023/01/28 13:05:28;;;;;;;16.13;3.25;;;26.70;99.90;;;;;;5067836;28;20195;-82
2023/01/28 13:08:10;;;;;;;10.75;2.97;;;26.80;99.90;;;;;;5074620;28;20216;-83
2023/01/28 13:10:45;;;;;;;14.65;3.13;;;26.80;99.90;;;;;;5084838;28;20195;-81
2023/01/28 13:13:22;;;;;;;14.60;3.50;;;26.70;99.90;;;;;;5073179;28;20196;-82
2023/01/28 13:15:53;;;;;;;16.73;3.35;;;26.80;99.90;;;;;;5063500;28;20717;-81
2023/01/28 13:18:45;;;;;;;15.18;3.20;;;26.80;99.90;;;;;;5069120;28;20286;-82
2023/01/28 13:21:31;;;;;;;11.75;3.45;;;26.80;99.90;;;;;;5077884;28;20288;-82
2023/01/28 13:24:25;;;;;;;15.63;3.35;;;26.80;99.90;;;;;;5075788;28;20191;-82
2023/01/28 13:26:58;;;;;;;14.00;3.72;;;26.70;99.90;;;;;;5069364;28;20180;-81
2023/01/28 13:29:34;;;;;;;12.55;3.70;;;26.80;99.90;;;;;;5071543;28;20227;-83
2023/01/28 13:32:26;;;;;;;13.50;3.70;;;26.80;99.90;;;;;;5070669;28;20203;-81
2023/01/28 13:35:02;;;;;;;16.00;3.75;;;26.80;99.90;;;;;;5057745;28;20196;-81
2023/01/28 13:37:36;;;;;;;16.85;3.83;;;26.80;99.90;;;;;;5072749;28;20200;-82
2023/01/28 13:40:24;;;;;;;14.05;3.78;;;26.70;99.90;;;;;;5070778;28;20195;-81
2023/01/28 13:43:06;;;;;;;10.40;3.53;;;26.70;99.90;;;;;;5064515;28;20244;-82
2023/01/28 13:45:40;;;;;;;14.68;3.70;;;26.70;99.90;;;;;;5072351;28;20192;-81
2023/01/28 13:48:25;;;;;;;13.13;3.47;;;26.70;99.90;;;;;;5063907;28;20306;-81
2023/01/28 13:50:57;;;;;;;15.32;3.90;;;26.70;99.90;;;;;;5070831;28;20200;-81
2023/01/28 13:53:41;;;;;;;15.10;3.65;;;26.70;99.90;;;;;;5052572;28;20201;-82
2023/01/28 13:56:23;;;;;;;17.90;3.78;;;26.70;99.90;;;;;;5055922;28;20204;-82